sensor_id;sensor_type;location;lat;lon;timestamp;pressure;altitude;pressure_sealevel;temperature;humidity
34081;BME280;20358;50.272;19.026;2022-07-19T00:05:13;98894.94;;;18.67;57.28
34081;BME280;20358;50.272;19.026;2022-07-19T00:08:19;98893.22;;;18.66;57.23
34081;BME280;20358;50.272;19.026;2022-07-19T00:11:28;98887.78;;;18.68;57.22
34081;BME280;20358;50.272;19.026;2022-07-19T00:14:34;98891.44;;;18.67;57.26
34081;BME280;20358;50.272;19.026;2022-07-19T00:17:42;98896.84;;;18.65;57.40
34081;BME280;20358;50.272;19.026;2022-07-19T00:20:49;98895.16;;;18.64;57.48
34081;BME280;20358;50.272;19.026;2022-07-19T00:23:54;98892.50;;;18.64;57.72
34081;BME280;20358;50.272;19.026;2022-07-19T00:27:05;98888.16;;;18.63;57.67
34081;BME280;20358;50.272;19.026;2022-07-19T00:30:12;98896.34;;;18.60;57.95
34081;BME280;20358;50.272;19.026;2022-07-19T00:33:18;98893.59;;;18.62;58.05
34081;BME280;20358;50.272;19.026;2022-07-19T00:36:23;98889.25;;;18.61;57.95
34081;BME280;20358;50.272;19.026;2022-07-19T00:39:30;98890.34;;;18.58;58.12
34081;BME280;20358;50.272;19.026;2022-07-19T00:42:39;98892.88;;;18.60;58.30
34081;BME280;20358;50.272;19.026;2022-07-19T00:45:46;98896.34;;;18.60;58.35
34081;BME280;20358;50.272;19.026;2022-07-19T00:48:52;98887.69;;;18.58;58.57
34081;BME280;20358;50.272;19.026;2022-07-19T00:51:59;98901.19;;;18.55;58.73
34081;BME280;20358;50.272;19.026;2022-07-19T00:55:07;98901.41;;;18.52;59.04
34081;BME280;20358;50.272;19.026;2022-07-19T00:58:16;98901.69;;;18.49;58.95
34081;BME280;20358;50.272;19.026;2022-07-19T01:01:22;98890.47;;;18.46;59.30
34081;BME280;20358;50.272;19.026;2022-07-19T01:04:29;98894.06;;;18.45;59.27
34081;BME280;20358;50.272;19.026;2022-07-19T01:07:34;98894.56;;;18.38;59.38
34081;BME280;20358;50.272;19.026;2022-07-19T01:10:41;98896.38;;;18.38;59.39
34081;BME280;20358;50.272;19.026;2022-07-19T01:13:49;98886.94;;;18.34;59.61
34081;BME280;20358;50.272;19.026;2022-07-19T01:16:56;98890.81;;;18.30;59.71
34081;BME280;20358;50.272;19.026;2022-07-19T01:20:03;98896.13;;;18.30;60.01
34081;BME280;20358;50.272;19.026;2022-07-19T01:23:13;98891.03;;;18.27;60.07
34081;BME280;20358;50.272;19.026;2022-07-19T01:26:18;98896.56;;;18.24;60.10
34081;BME280;20358;50.272;19.026;2022-07-19T01:29:25;98891.28;;;18.24;60.23
34081;BME280;20358;50.272;19.026;2022-07-19T01:32:31;98887.91;;;18.22;60.44
34081;BME280;20358;50.272;19.026;2022-07-19T01:35:38;98891.41;;;18.22;60.57
34081;BME280;20358;50.272;19.026;2022-07-19T01:38:46;98895.00;;;18.21;60.46
34081;BME280;20358;50.272;19.026;2022-07-19T01:41:53;98892.47;;;18.20;60.52
34081;BME280;20358;50.272;19.026;2022-07-19T01:44:58;98889.22;;;18.16;60.51
34081;BME280;20358;50.272;19.026;2022-07-19T01:48:05;98890.28;;;18.14;60.57
34081;BME280;20358;50.272;19.026;2022-07-19T01:51:11;98890.53;;;18.11;60.44
34081;BME280;20358;50.272;19.026;2022-07-19T01:54:21;98876.53;;;18.09;60.74
34081;BME280;20358;50.272;19.026;2022-07-19T01:57:26;98895.25;;;18.07;60.61
34081;BME280;20358;50.272;19.026;2022-07-19T02:00:33;98890.16;;;18.04;60.72
34081;BME280;20358;50.272;19.026;2022-07-19T02:03:38;98887.75;;;18.01;60.90
34081;BME280;20358;50.272;19.026;2022-07-19T02:06:45;98904.50;;;18.02;60.93
34081;BME280;20358;50.272;19.026;2022-07-19T02:09:55;98894.03;;;18.00;61.04
34081;BME280;20358;50.272;19.026;2022-07-19T02:13:06;98895.06;;;17.98;61.33
34081;BME280;20358;50.272;19.026;2022-07-19T02:16:12;98902.09;;;17.99;61.55
34081;BME280;20358;50.272;19.026;2022-07-19T02:19:19;98896.97;;;17.96;61.50
34081;BME280;20358;50.272;19.026;2022-07-19T02:22:25;98904.94;;;17.96;61.54
34081;BME280;20358;50.272;19.026;2022-07-19T02:25:34;98896.97;;;17.96;61.29
34081;BME280;20358;50.272;19.026;2022-07-19T02:28:39;98898.06;;;17.93;61.33
34081;BME280;20358;50.272;19.026;2022-07-19T02:31:46;98898.06;;;17.93;61.30
34081;BME280;20358;50.272;19.026;2022-07-19T02:34:52;98896.38;;;17.92;61.38
34081;BME280;20358;50.272;19.026;2022-07-19T02:37:58;98895.53;;;17.92;61.55
34081;BME280;20358;50.272;19.026;2022-07-19T02:41:07;98888.53;;;17.91;61.31
34081;BME280;20358;50.272;19.026;2022-07-19T02:44:13;98896.47;;;17.91;61.38
34081;BME280;20358;50.272;19.026;2022-07-19T02:47:19;98891.31;;;17.89;61.64
34081;BME280;20358;50.272;19.026;2022-07-19T02:50:25;98897.47;;;17.90;61.77
34081;BME280;20358;50.272;19.026;2022-07-19T02:53:31;98895.75;;;17.89;61.48
34081;BME280;20358;50.272;19.026;2022-07-19T02:56:40;98887.94;;;17.87;61.67
34081;BME280;20358;50.272;19.026;2022-07-19T02:59:46;98888.16;;;17.84;61.98
34081;BME280;20358;50.272;19.026;2022-07-19T03:02:52;98876.94;;;17.80;61.95
34081;BME280;20358;50.272;19.026;2022-07-19T03:06:18;98890.19;;;17.80;62.06
34081;BME280;20358;50.272;19.026;2022-07-19T03:09:25;98894.78;;;17.78;61.97
34081;BME280;20358;50.272;19.026;2022-07-19T03:12:33;98891.13;;;17.79;61.95
34081;BME280;20358;50.272;19.026;2022-07-19T03:15:40;98894.03;;;17.76;61.82
34081;BME280;20358;50.272;19.026;2022-07-19T03:18:45;98895.94;;;17.74;62.04
34081;BME280;20358;50.272;19.026;2022-07-19T03:21:52;98907.53;;;17.73;62.04
34081;BME280;20358;50.272;19.026;2022-07-19T03:24:58;98906.03;;;17.69;62.33
34081;BME280;20358;50.272;19.026;2022-07-19T03:28:07;98906.03;;;17.69;62.23
34081;BME280;20358;50.272;19.026;2022-07-19T03:31:13;98903.53;;;17.68;62.12
34081;BME280;20358;50.272;19.026;2022-07-19T03:34:20;98909.91;;;17.65;62.36
34081;BME280;20358;50.272;19.026;2022-07-19T03:37:25;98922.66;;;17.60;62.66
34081;BME280;20358;50.272;19.026;2022-07-19T03:40:32;98910.34;;;17.59;62.57
34081;BME280;20358;50.272;19.026;2022-07-19T03:43:40;98924.56;;;17.58;62.58
34081;BME280;20358;50.272;19.026;2022-07-19T03:46:47;98925.66;;;17.56;62.97
34081;BME280;20358;50.272;19.026;2022-07-19T03:49:52;98916.34;;;17.50;62.99
34081;BME280;20358;50.272;19.026;2022-07-19T03:52:59;98931.03;;;17.54;63.21
34081;BME280;20358;50.272;19.026;2022-07-19T03:56:07;98926.72;;;17.53;63.37
34081;BME280;20358;50.272;19.026;2022-07-19T03:59:16;98935.41;;;17.55;63.53
34081;BME280;20358;50.272;19.026;2022-07-19T04:02:22;98932.75;;;17.55;63.80
34081;BME280;20358;50.272;19.026;2022-07-19T04:05:29;98934.31;;;17.58;63.78
34081;BME280;20358;50.272;19.026;2022-07-19T04:08:34;98934.91;;;17.61;63.66
34081;BME280;20358;50.272;19.026;2022-07-19T04:11:41;98929.41;;;17.64;63.83
34081;BME280;20358;50.272;19.026;2022-07-19T04:14:49;98927.50;;;17.66;63.73
34081;BME280;20358;50.272;19.026;2022-07-19T04:17:56;98923.66;;;17.70;63.81
34081;BME280;20358;50.272;19.026;2022-07-19T04:21:03;98923.44;;;17.73;63.77
34081;BME280;20358;50.272;19.026;2022-07-19T04:24:09;98921.28;;;17.78;63.81
34081;BME280;20358;50.272;19.026;2022-07-19T04:27:15;98921.66;;;17.85;63.76
34081;BME280;20358;50.272;19.026;2022-07-19T04:30:25;98924.47;;;17.95;63.64
34081;BME280;20358;50.272;19.026;2022-07-19T04:33:30;98925.34;;;18.06;63.43
34081;BME280;20358;50.272;19.026;2022-07-19T04:36:37;98924.44;;;18.18;63.32
34081;BME280;20358;50.272;19.026;2022-07-19T04:39:42;98923.59;;;18.29;62.93
34081;BME280;20358;50.272;19.026;2022-07-19T04:42:49;98911.91;;;18.43;62.92
34081;BME280;20358;50.272;19.026;2022-07-19T04:45:58;98907.97;;;18.59;62.45
34081;BME280;20358;50.272;19.026;2022-07-19T04:49:05;98917.84;;;18.68;61.85
34081;BME280;20358;50.272;19.026;2022-07-19T04:52:10;98917.13;;;18.77;61.50
34081;BME280;20358;50.272;19.026;2022-07-19T04:55:17;98921.13;;;18.83;61.19
34081;BME280;20358;50.272;19.026;2022-07-19T04:58:22;98914.00;;;18.94;61.14
34081;BME280;20358;50.272;19.026;2022-07-19T05:01:32;98916.66;;;19.06;60.24
34081;BME280;20358;50.272;19.026;2022-07-19T05:04:38;98919.41;;;19.15;59.62
34081;BME280;20358;50.272;19.026;2022-07-19T05:07:44;98932.53;;;19.28;58.94
34081;BME280;20358;50.272;19.026;2022-07-19T05:10:50;98922.72;;;19.39;58.35
34081;BME280;20358;50.272;19.026;2022-07-19T05:13:56;98927.03;;;19.51;57.81
34081;BME280;20358;50.272;19.026;2022-07-19T05:17:05;98924.47;;;19.61;57.32
34081;BME280;20358;50.272;19.026;2022-07-19T05:20:11;98930.47;;;19.74;56.95
34081;BME280;20358;50.272;19.026;2022-07-19T05:23:18;98934.53;;;19.89;56.43
34081;BME280;20358;50.272;19.026;2022-07-19T05:26:25;98931.31;;;20.06;55.95
34081;BME280;20358;50.272;19.026;2022-07-19T05:29:31;98932.66;;;20.21;55.38
34081;BME280;20358;50.272;19.026;2022-07-19T05:32:40;98915.81;;;20.42;55.35
34081;BME280;20358;50.272;19.026;2022-07-19T05:35:45;98922.34;;;20.79;54.29
34081;BME280;20358;50.272;19.026;2022-07-19T05:38:52;98921.44;;;20.99;53.86
34081;BME280;20358;50.272;19.026;2022-07-19T05:42:00;98916.03;;;21.20;53.34
34081;BME280;20358;50.272;19.026;2022-07-19T05:45:09;98920.69;;;21.27;52.70
34081;BME280;20358;50.272;19.026;2022-07-19T05:48:18;98919.63;;;21.49;52.67
34081;BME280;20358;50.272;19.026;2022-07-19T05:51:24;98922.84;;;21.72;52.37
34081;BME280;20358;50.272;19.026;2022-07-19T05:54:30;98918.09;;;21.66;51.68
34081;BME280;20358;50.272;19.026;2022-07-19T05:57:36;98923.28;;;21.58;51.74
34081;BME280;20358;50.272;19.026;2022-07-19T06:00:41;98922.19;;;21.89;52.35
34081;BME280;20358;50.272;19.026;2022-07-19T06:04:11;98920.69;;;22.52;50.71
34081;BME280;20358;50.272;19.026;2022-07-19T06:07:17;98918.94;;;22.80;48.87
34081;BME280;20358;50.272;19.026;2022-07-19T06:10:23;98918.41;;;22.66;49.48
34081;BME280;20358;50.272;19.026;2022-07-19T06:13:29;98915.59;;;22.58;49.24
34081;BME280;20358;50.272;19.026;2022-07-19T06:16:36;98916.69;;;22.65;49.57
34081;BME280;20358;50.272;19.026;2022-07-19T06:19:46;98922.13;;;22.83;49.24
34081;BME280;20358;50.272;19.026;2022-07-19T06:22:52;98921.84;;;22.86;47.74
34081;BME280;20358;50.272;19.026;2022-07-19T06:25:58;98915.25;;;22.81;49.16
34081;BME280;20358;50.272;19.026;2022-07-19T06:29:06;98911.63;;;22.82;48.35
34081;BME280;20358;50.272;19.026;2022-07-19T06:32:12;98908.00;;;22.63;48.18
34081;BME280;20358;50.272;19.026;2022-07-19T06:35:21;98904.41;;;22.45;48.82
34081;BME280;20358;50.272;19.026;2022-07-19T06:38:26;98910.03;;;22.42;49.38
34081;BME280;20358;50.272;19.026;2022-07-19T06:41:33;98912.25;;;22.47;49.36
34081;BME280;20358;50.272;19.026;2022-07-19T06:44:40;98914.50;;;22.51;48.53
34081;BME280;20358;50.272;19.026;2022-07-19T06:47:47;98915.03;;;22.55;48.54
34081;BME280;20358;50.272;19.026;2022-07-19T06:50:55;98913.63;;;22.60;48.16
34081;BME280;20358;50.272;19.026;2022-07-19T06:54:03;98915.72;;;22.66;47.49
34081;BME280;20358;50.272;19.026;2022-07-19T06:57:09;98912.88;;;22.78;48.25
34081;BME280;20358;50.272;19.026;2022-07-19T07:00:15;98905.38;;;22.91;48.05
34081;BME280;20358;50.272;19.026;2022-07-19T07:03:21;98908.13;;;22.99;47.11
34081;BME280;20358;50.272;19.026;2022-07-19T07:06:30;98907.25;;;23.08;47.15
34081;BME280;20358;50.272;19.026;2022-07-19T07:09:36;98917.69;;;23.28;47.74
34081;BME280;20358;50.272;19.026;2022-07-19T07:12:42;98916.38;;;23.60;47.28
34081;BME280;20358;50.272;19.026;2022-07-19T07:15:48;98920.41;;;23.81;46.86
34081;BME280;20358;50.272;19.026;2022-07-19T07:18:54;98910.53;;;24.00;46.05
34081;BME280;20358;50.272;19.026;2022-07-19T07:22:03;98910.19;;;24.12;45.80
34081;BME280;20358;50.272;19.026;2022-07-19T07:25:09;98915.16;;;24.25;45.81
34081;BME280;20358;50.272;19.026;2022-07-19T07:28:17;98917.88;;;24.33;46.12
34081;BME280;20358;50.272;19.026;2022-07-19T07:31:28;98920.63;;;24.41;45.11
34081;BME280;20358;50.272;19.026;2022-07-19T07:34:34;98914.00;;;24.53;45.13
34081;BME280;20358;50.272;19.026;2022-07-19T07:37:44;98907.53;;;24.64;44.98
34081;BME280;20358;50.272;19.026;2022-07-19T07:40:49;98902.84;;;24.66;45.26
34081;BME280;20358;50.272;19.026;2022-07-19T07:44:16;98905.34;;;24.67;44.82
34081;BME280;20358;50.272;19.026;2022-07-19T07:47:21;98901.31;;;24.63;45.51
34081;BME280;20358;50.272;19.026;2022-07-19T07:50:27;98901.63;;;24.60;44.84
34081;BME280;20358;50.272;19.026;2022-07-19T07:53:36;98907.34;;;24.65;45.22
34081;BME280;20358;50.272;19.026;2022-07-19T07:56:43;98903.06;;;24.72;45.04
34081;BME280;20358;50.272;19.026;2022-07-19T07:59:48;98903.38;;;24.69;44.83
34081;BME280;20358;50.272;19.026;2022-07-19T08:02:55;98911.41;;;24.69;44.86
34081;BME280;20358;50.272;19.026;2022-07-19T08:06:03;98905.72;;;24.72;45.01
34081;BME280;20358;50.272;19.026;2022-07-19T08:09:12;98896.72;;;24.73;44.53
34081;BME280;20358;50.272;19.026;2022-07-19T08:12:18;98894.56;;;24.77;45.08
34081;BME280;20358;50.272;19.026;2022-07-19T08:15:26;98885.69;;;24.76;44.43
34081;BME280;20358;50.272;19.026;2022-07-19T08:18:31;98898.44;;;24.82;44.92
34081;BME280;20358;50.272;19.026;2022-07-19T08:21:41;98905.16;;;24.86;44.60
34081;BME280;20358;50.272;19.026;2022-07-19T08:24:49;98890.41;;;24.82;43.60
34081;BME280;20358;50.272;19.026;2022-07-19T08:27:56;98909.63;;;24.78;42.04
34081;BME280;20358;50.272;19.026;2022-07-19T08:31:02;98897.38;;;24.75;43.21
34081;BME280;20358;50.272;19.026;2022-07-19T08:34:14;98896.44;;;24.84;44.18
34081;BME280;20358;50.272;19.026;2022-07-19T08:37:20;98901.00;;;24.92;43.93
34081;BME280;20358;50.272;19.026;2022-07-19T08:40:30;98881.56;;;24.90;44.01
34081;BME280;20358;50.272;19.026;2022-07-19T08:43:41;98904.56;;;25.00;44.00
34081;BME280;20358;50.272;19.026;2022-07-19T08:46:48;98898.69;;;25.05;43.96
34081;BME280;20358;50.272;19.026;2022-07-19T08:49:56;98895.69;;;25.08;40.56
34081;BME280;20358;50.272;19.026;2022-07-19T08:53:05;98891.16;;;25.08;39.37
34081;BME280;20358;50.272;19.026;2022-07-19T08:56:13;98897.56;;;25.16;39.28
34081;BME280;20358;50.272;19.026;2022-07-19T08:59:35;98899.94;;;25.19;40.70
34081;BME280;20358;50.272;19.026;2022-07-19T09:02:51;98887.34;;;25.27;41.19
34081;BME280;20358;50.272;19.026;2022-07-19T09:06:03;98888.09;;;25.37;41.24
34081;BME280;20358;50.272;19.026;2022-07-19T09:09:09;98888.28;;;25.44;40.73
34081;BME280;20358;50.272;19.026;2022-07-19T09:12:20;98893.81;;;25.50;41.39
34081;BME280;20358;50.272;19.026;2022-07-19T09:15:48;98881.56;;;25.56;38.75
34081;BME280;20358;50.272;19.026;2022-07-19T09:19:03;98879.91;;;25.63;38.51
34081;BME280;20358;50.272;19.026;2022-07-19T09:22:12;98878.91;;;25.64;38.51
34081;BME280;20358;50.272;19.026;2022-07-19T09:25:32;98873.22;;;25.67;38.52
34081;BME280;20358;50.272;19.026;2022-07-19T09:28:40;98871.84;;;25.71;38.77
34081;BME280;20358;50.272;19.026;2022-07-19T09:32:09;98878.41;;;25.77;38.46
34081;BME280;20358;50.272;19.026;2022-07-19T09:35:15;98865.50;;;25.72;38.90
34081;BME280;20358;50.272;19.026;2022-07-19T09:38:23;98871.53;;;25.66;39.82
34081;BME280;20358;50.272;19.026;2022-07-19T09:41:29;98875.88;;;25.59;39.95
34081;BME280;20358;50.272;19.026;2022-07-19T09:44:39;98869.34;;;25.61;39.23
34081;BME280;20358;50.272;19.026;2022-07-19T09:47:45;98873.22;;;25.67;39.39
34081;BME280;20358;50.272;19.026;2022-07-19T09:50:53;98863.00;;;25.71;39.42
34081;BME280;20358;50.272;19.026;2022-07-19T09:53:59;98867.00;;;25.66;37.76
34081;BME280;20358;50.272;19.026;2022-07-19T09:57:07;98858.09;;;25.74;39.23
34081;BME280;20358;50.272;19.026;2022-07-19T10:00:19;98863.81;;;25.71;39.64
34081;BME280;20358;50.272;19.026;2022-07-19T10:03:25;98862.78;;;25.56;40.36
34081;BME280;20358;50.272;19.026;2022-07-19T10:06:32;98854.94;;;25.62;39.53
34081;BME280;20358;50.272;19.026;2022-07-19T10:09:39;98863.16;;;25.77;38.93
34081;BME280;20358;50.272;19.026;2022-07-19T10:12:46;98855.25;;;25.92;37.99
34081;BME280;20358;50.272;19.026;2022-07-19T10:15:57;98861.16;;;26.03;37.28
34081;BME280;20358;50.272;19.026;2022-07-19T10:22:32;98853.44;;;26.00;39.12
34081;BME280;20358;50.272;19.026;2022-07-19T10:25:41;98853.75;;;25.81;39.58
34081;BME280;20358;50.272;19.026;2022-07-19T10:28:48;98848.03;;;25.76;40.38
34081;BME280;20358;50.272;19.026;2022-07-19T10:32:14;98843.19;;;25.80;39.92
34081;BME280;20358;50.272;19.026;2022-07-19T10:35:22;98837.16;;;25.78;38.85
34081;BME280;20358;50.272;19.026;2022-07-19T10:38:28;98846.50;;;25.65;39.42
34081;BME280;20358;50.272;19.026;2022-07-19T10:41:34;98846.72;;;25.80;37.53
34081;BME280;20358;50.272;19.026;2022-07-19T10:45:09;98847.41;;;26.06;36.78
34081;BME280;20358;50.272;19.026;2022-07-19T10:48:19;98846.03;;;26.18;37.33
34081;BME280;20358;50.272;19.026;2022-07-19T10:51:34;98847.50;;;26.29;37.46
34081;BME280;20358;50.272;19.026;2022-07-19T10:54:42;98840.13;;;26.31;37.64
34081;BME280;20358;50.272;19.026;2022-07-19T10:57:49;98838.25;;;26.40;38.37
34081;BME280;20358;50.272;19.026;2022-07-19T11:00:56;98840.59;;;26.51;38.03
34081;BME280;20358;50.272;19.026;2022-07-19T11:04:27;98835.84;;;26.61;37.86
34081;BME280;20358;50.272;19.026;2022-07-19T11:07:35;98830.47;;;26.61;38.41
34081;BME280;20358;50.272;19.026;2022-07-19T11:10:40;98822.41;;;26.69;38.13
34081;BME280;20358;50.272;19.026;2022-07-19T11:13:49;98827.06;;;26.75;37.01
34081;BME280;20358;50.272;19.026;2022-07-19T11:16:59;98822.69;;;26.82;37.55
34081;BME280;20358;50.272;19.026;2022-07-19T11:20:12;98817.94;;;26.92;37.42
34081;BME280;20358;50.272;19.026;2022-07-19T11:23:20;98826.66;;;26.94;37.34
34081;BME280;20358;50.272;19.026;2022-07-19T11:26:26;98816.00;;;27.01;37.79
34081;BME280;20358;50.272;19.026;2022-07-19T11:29:56;98813.63;;;27.06;37.86
34081;BME280;20358;50.272;19.026;2022-07-19T11:33:05;98815.31;;;27.07;37.29
34081;BME280;20358;50.272;19.026;2022-07-19T11:36:21;98812.75;;;27.13;37.44
34081;BME280;20358;50.272;19.026;2022-07-19T11:39:45;98803.13;;;27.19;37.42
34081;BME280;20358;50.272;19.026;2022-07-19T11:42:52;98802.66;;;27.15;37.30
34081;BME280;20358;50.272;19.026;2022-07-19T11:46:17;98807.69;;;27.18;37.24
34081;BME280;20358;50.272;19.026;2022-07-19T11:49:23;98806.28;;;27.30;37.19
34081;BME280;20358;50.272;19.026;2022-07-19T11:52:41;98808.91;;;27.38;35.71
34081;BME280;20358;50.272;19.026;2022-07-19T11:55:46;98815.59;;;27.42;35.57
34081;BME280;20358;50.272;19.026;2022-07-19T11:58:55;98803.63;;;27.45;36.70
34081;BME280;20358;50.272;19.026;2022-07-19T12:02:02;98801.13;;;27.43;35.69
34081;BME280;20358;50.272;19.026;2022-07-19T12:05:10;98784.50;;;27.40;36.59
34081;BME280;20358;50.272;19.026;2022-07-19T12:08:19;98789.19;;;27.23;37.31
34081;BME280;20358;50.272;19.026;2022-07-19T12:11:25;98793.69;;;27.00;37.09
34081;BME280;20358;50.272;19.026;2022-07-19T12:14:32;98790.75;;;27.10;36.83
34081;BME280;20358;50.272;19.026;2022-07-19T12:17:54;98796.25;;;27.16;35.09
34081;BME280;20358;50.272;19.026;2022-07-19T12:21:23;98780.31;;;27.37;35.57
34081;BME280;20358;50.272;19.026;2022-07-19T12:24:43;98785.09;;;27.27;36.84
34081;BME280;20358;50.272;19.026;2022-07-19T12:27:58;98791.75;;;27.09;37.49
34081;BME280;20358;50.272;19.026;2022-07-19T12:31:06;98781.97;;;26.85;37.60
34081;BME280;20358;50.272;19.026;2022-07-19T12:34:12;98781.03;;;26.70;37.99
34081;BME280;20358;50.272;19.026;2022-07-19T12:37:25;98771.97;;;26.71;38.04
34081;BME280;20358;50.272;19.026;2022-07-19T12:40:36;98774.06;;;26.92;37.37
34081;BME280;20358;50.272;19.026;2022-07-19T12:43:43;98784.81;;;27.22;36.18
34081;BME280;20358;50.272;19.026;2022-07-19T12:47:08;98775.91;;;27.44;35.67
34081;BME280;20358;50.272;19.026;2022-07-19T12:50:36;98768.72;;;27.60;35.80
34081;BME280;20358;50.272;19.026;2022-07-19T12:53:43;98755.75;;;27.78;36.56
34081;BME280;20358;50.272;19.026;2022-07-19T12:56:53;98752.47;;;27.90;36.54
34081;BME280;20358;50.272;19.026;2022-07-19T12:59:58;98761.59;;;28.04;36.61
34081;BME280;20358;50.272;19.026;2022-07-19T13:03:05;98751.72;;;28.11;35.13
34081;BME280;20358;50.272;19.026;2022-07-19T13:06:11;98753.97;;;28.22;34.72
34081;BME280;20358;50.272;19.026;2022-07-19T13:09:17;98751.16;;;28.30;33.94
34081;BME280;20358;50.272;19.026;2022-07-19T13:12:26;98757.50;;;28.37;34.09
34081;BME280;20358;50.272;19.026;2022-07-19T13:15:32;98754.72;;;28.45;33.35
34081;BME280;20358;50.272;19.026;2022-07-19T13:18:38;98745.22;;;28.49;34.31
34081;BME280;20358;50.272;19.026;2022-07-19T13:21:48;98736.66;;;28.60;34.36
34081;BME280;20358;50.272;19.026;2022-07-19T13:24:54;98742.22;;;28.74;34.88
34081;BME280;20358;50.272;19.026;2022-07-19T13:28:23;98741.75;;;28.70;34.99
34081;BME280;20358;50.272;19.026;2022-07-19T13:31:29;98741.94;;;28.68;35.38
34081;BME280;20358;50.272;19.026;2022-07-19T13:34:36;98762.47;;;28.69;33.89
34081;BME280;20358;50.272;19.026;2022-07-19T13:37:42;98738.47;;;28.75;34.50
34081;BME280;20358;50.272;19.026;2022-07-19T13:40:48;98740.69;;;28.86;33.87
34081;BME280;20358;50.272;19.026;2022-07-19T13:43:57;98745.78;;;28.95;34.56
34081;BME280;20358;50.272;19.026;2022-07-19T13:47:05;98732.38;;;29.02;33.96
34081;BME280;20358;50.272;19.026;2022-07-19T13:50:10;98725.19;;;29.09;34.71
34081;BME280;20358;50.272;19.026;2022-07-19T13:53:16;98719.41;;;29.12;34.62
34081;BME280;20358;50.272;19.026;2022-07-19T13:56:22;98716.38;;;29.21;34.64
34081;BME280;20358;50.272;19.026;2022-07-19T13:59:32;98709.19;;;29.28;33.64
34081;BME280;20358;50.272;19.026;2022-07-19T14:02:38;98709.88;;;29.37;34.44
34081;BME280;20358;50.272;19.026;2022-07-19T14:05:45;98693.94;;;29.42;34.31
34081;BME280;20358;50.272;19.026;2022-07-19T14:08:51;98706.78;;;29.40;34.73
34081;BME280;20358;50.272;19.026;2022-07-19T14:11:57;98705.53;;;29.36;35.11
34081;BME280;20358;50.272;19.026;2022-07-19T14:15:07;98690.59;;;29.40;34.38
34081;BME280;20358;50.272;19.026;2022-07-19T14:18:14;98701.88;;;29.50;34.02
34081;BME280;20358;50.272;19.026;2022-07-19T14:21:19;98695.34;;;29.59;34.02
34081;BME280;20358;50.272;19.026;2022-07-19T14:24:25;98688.53;;;29.63;33.54
34081;BME280;20358;50.272;19.026;2022-07-19T14:27:31;98691.59;;;29.60;32.99
34081;BME280;20358;50.272;19.026;2022-07-19T14:30:41;98686.63;;;29.57;32.88
34081;BME280;20358;50.272;19.026;2022-07-19T14:33:47;98678.06;;;29.54;34.46
34081;BME280;20358;50.272;19.026;2022-07-19T14:37:13;98677.69;;;29.57;33.72
34081;BME280;20358;50.272;19.026;2022-07-19T14:40:20;98671.44;;;29.56;34.00
34081;BME280;20358;50.272;19.026;2022-07-19T14:43:26;98671.31;;;29.71;33.46
34081;BME280;20358;50.272;19.026;2022-07-19T14:46:35;98669.94;;;29.81;32.37
34081;BME280;20358;50.272;19.026;2022-07-19T14:49:41;98661.84;;;29.81;31.96
34081;BME280;20358;50.272;19.026;2022-07-19T14:52:47;98680.16;;;29.86;32.30
34081;BME280;20358;50.272;19.026;2022-07-19T14:55:53;98673.50;;;29.88;32.56
34081;BME280;20358;50.272;19.026;2022-07-19T14:58:59;98679.34;;;29.85;32.07
34081;BME280;20358;50.272;19.026;2022-07-19T15:02:08;98681.63;;;29.88;33.19
34081;BME280;20358;50.272;19.026;2022-07-19T15:05:14;98674.63;;;30.01;33.37
34081;BME280;20358;50.272;19.026;2022-07-19T15:08:20;98678.69;;;30.18;33.24
34081;BME280;20358;50.272;19.026;2022-07-19T15:11:26;98668.34;;;30.28;33.08
34081;BME280;20358;50.272;19.026;2022-07-19T15:14:35;98665.94;;;30.52;32.95
34081;BME280;20358;50.272;19.026;2022-07-19T15:17:43;98664.47;;;31.24;33.22
34081;BME280;20358;50.272;19.026;2022-07-19T15:20:50;98658.19;;;31.76;32.71
34081;BME280;20358;50.272;19.026;2022-07-19T15:23:55;98663.13;;;32.18;31.66
34081;BME280;20358;50.272;19.026;2022-07-19T15:27:03;98652.94;;;32.58;32.08
34081;BME280;20358;50.272;19.026;2022-07-19T15:30:09;98657.59;;;33.13;32.02
34081;BME280;20358;50.272;19.026;2022-07-19T15:33:18;98652.38;;;33.86;31.03
34081;BME280;20358;50.272;19.026;2022-07-19T15:36:24;98648.78;;;34.46;30.44
34081;BME280;20358;50.272;19.026;2022-07-19T15:39:31;98649.09;;;34.86;30.21
34081;BME280;20358;50.272;19.026;2022-07-19T15:42:42;98656.69;;;35.37;28.56
34081;BME280;20358;50.272;19.026;2022-07-19T15:45:50;98643.31;;;35.70;29.51
34081;BME280;20358;50.272;19.026;2022-07-19T15:48:59;98644.38;;;35.93;29.16
34081;BME280;20358;50.272;19.026;2022-07-19T15:52:06;98634.56;;;36.03;29.11
34081;BME280;20358;50.272;19.026;2022-07-19T15:55:12;98640.66;;;36.22;27.22
34081;BME280;20358;50.272;19.026;2022-07-19T15:58:19;98644.72;;;36.08;26.88
34081;BME280;20358;50.272;19.026;2022-07-19T16:01:25;98635.25;;;36.10;28.19
34081;BME280;20358;50.272;19.026;2022-07-19T16:04:35;98634.09;;;36.46;28.01
34081;BME280;20358;50.272;19.026;2022-07-19T16:07:48;98634.34;;;36.73;27.61
34081;BME280;20358;50.272;19.026;2022-07-19T16:10:54;98627.13;;;37.12;28.11
34081;BME280;20358;50.272;19.026;2022-07-19T16:14:00;98637.03;;;37.18;27.84
34081;BME280;20358;50.272;19.026;2022-07-19T16:17:06;98624.72;;;36.98;26.15
34081;BME280;20358;50.272;19.026;2022-07-19T16:20:16;98629.78;;;36.78;25.84
34081;BME280;20358;50.272;19.026;2022-07-19T16:23:22;98630.19;;;36.70;25.84
34081;BME280;20358;50.272;19.026;2022-07-19T16:26:29;98623.91;;;36.86;27.15
34081;BME280;20358;50.272;19.026;2022-07-19T16:29:56;98625.66;;;37.37;27.10
34081;BME280;20358;50.272;19.026;2022-07-19T16:33:02;98622.16;;;37.42;24.96